sensor_id;sensor_type;location;lat;lon;timestamp;P1;durP1;ratioP1;P2;durP2;ratioP2
8411;SDS011;4243;49.296;11.348;2023-06-14T00:01:36;123.30;;;5.53;;
8411;SDS011;4243;49.296;11.348;2023-06-14T00:04:04;122.90;;;6.33;;
8411;SDS011;4243;49.296;11.348;2023-06-14T00:06:32;123.67;;;6.30;;
8411;SDS011;4243;49.296;11.348;2023-06-14T00:09:00;123.67;;;7.00;;
8411;SDS011;4243;49.296;11.348;2023-06-14T00:11:27;123.97;;;6.33;;
8411;SDS011;4243;49.296;11.348;2023-06-14T00:13:57;124.07;;;6.30;;
8411;SDS011;4243;49.296;11.348;2023-06-14T00:16:24;122.57;;;6.00;;
8411;SDS011;4243;49.296;11.348;2023-06-14T00:18:52;123.10;;;5.93;;
8411;SDS011;4243;49.296;11.348;2023-06-14T00:21:20;123.17;;;5.80;;
8411;SDS011;4243;49.296;11.348;2023-06-14T00:23:48;123.17;;;6.30;;
8411;SDS011;4243;49.296;11.348;2023-06-14T00:26:15;123.60;;;6.13;;
8411;SDS011;4243;49.296;11.348;2023-06-14T00:28:43;123.13;;;6.10;;
8411;SDS011;4243;49.296;11.348;2023-06-14T00:31:11;123.20;;;5.70;;
8411;SDS011;4243;49.296;11.348;2023-06-14T00:33:38;123.40;;;5.80;;
8411;SDS011;4243;49.296;11.348;2023-06-14T00:36:06;123.17;;;5.53;;
8411;SDS011;4243;49.296;11.348;2023-06-14T00:38:33;122.87;;;5.53;;
8411;SDS011;4243;49.296;11.348;2023-06-14T00:41:01;123.20;;;5.13;;
8411;SDS011;4243;49.296;11.348;2023-06-14T00:43:28;122.73;;;4.93;;
8411;SDS011;4243;49.296;11.348;2023-06-14T00:45:55;122.50;;;4.30;;
8411;SDS011;4243;49.296;11.348;2023-06-14T00:48:23;122.70;;;4.40;;
8411;SDS011;4243;49.296;11.348;2023-06-14T00:50:51;121.77;;;3.50;;
8411;SDS011;4243;49.296;11.348;2023-06-14T00:53:19;121.93;;;3.30;;
8411;SDS011;4243;49.296;11.348;2023-06-14T00:55:50;122.00;;;3.13;;
8411;SDS011;4243;49.296;11.348;2023-06-14T00:58:17;122.00;;;2.80;;
8411;SDS011;4243;49.296;11.348;2023-06-14T01:00:46;122.03;;;2.70;;
8411;SDS011;4243;49.296;11.348;2023-06-14T01:03:13;121.90;;;2.70;;
8411;SDS011;4243;49.296;11.348;2023-06-14T01:05:49;121.37;;;2.63;;
8411;SDS011;4243;49.296;11.348;2023-06-14T01:08:51;122.23;;;2.73;;
8411;SDS011;4243;49.296;11.348;2023-06-14T01:12:01;121.50;;;2.73;;
8411;SDS011;4243;49.296;11.348;2023-06-14T01:14:40;122.13;;;2.80;;
8411;SDS011;4243;49.296;11.348;2023-06-14T01:17:08;122.70;;;2.87;;
8411;SDS011;4243;49.296;11.348;2023-06-14T01:19:43;122.20;;;2.93;;
8411;SDS011;4243;49.296;11.348;2023-06-14T01:22:13;122.70;;;3.07;;
8411;SDS011;4243;49.296;11.348;2023-06-14T01:24:41;122.60;;;3.03;;
8411;SDS011;4243;49.296;11.348;2023-06-14T01:27:11;122.37;;;3.30;;
8411;SDS011;4243;49.296;11.348;2023-06-14T01:29:41;122.97;;;3.30;;
8411;SDS011;4243;49.296;11.348;2023-06-14T01:32:13;123.33;;;3.40;;
8411;SDS011;4243;49.296;11.348;2023-06-14T01:34:42;122.43;;;3.10;;
8411;SDS011;4243;49.296;11.348;2023-06-14T01:37:10;122.47;;;3.20;;
8411;SDS011;4243;49.296;11.348;2023-06-14T01:39:39;123.00;;;3.30;;
8411;SDS011;4243;49.296;11.348;2023-06-14T01:42:09;122.73;;;3.23;;
8411;SDS011;4243;49.296;11.348;2023-06-14T01:44:40;123.00;;;3.27;;
8411;SDS011;4243;49.296;11.348;2023-06-14T01:47:10;122.47;;;3.10;;
8411;SDS011;4243;49.296;11.348;2023-06-14T01:49:38;122.93;;;3.10;;
8411;SDS011;4243;49.296;11.348;2023-06-14T01:52:07;123.20;;;3.10;;
8411;SDS011;4243;49.296;11.348;2023-06-14T01:54:36;123.17;;;3.30;;
8411;SDS011;4243;49.296;11.348;2023-06-14T01:57:08;123.07;;;3.20;;
8411;SDS011;4243;49.296;11.348;2023-06-14T01:59:36;122.37;;;2.97;;
8411;SDS011;4243;49.296;11.348;2023-06-14T02:02:04;122.87;;;3.17;;
8411;SDS011;4243;49.296;11.348;2023-06-14T02:04:32;122.80;;;3.30;;
8411;SDS011;4243;49.296;11.348;2023-06-14T02:06:59;123.07;;;3.40;;
8411;SDS011;4243;49.296;11.348;2023-06-14T02:09:26;122.87;;;3.60;;
8411;SDS011;4243;49.296;11.348;2023-06-14T02:11:53;123.50;;;3.80;;
8411;SDS011;4243;49.296;11.348;2023-06-14T02:14:21;123.10;;;3.93;;
8411;SDS011;4243;49.296;11.348;2023-06-14T02:16:49;123.70;;;4.90;;
8411;SDS011;4243;49.296;11.348;2023-06-14T02:19:18;123.77;;;4.87;;
8411;SDS011;4243;49.296;11.348;2023-06-14T02:21:46;123.73;;;4.70;;
8411;SDS011;4243;49.296;11.348;2023-06-14T02:24:14;123.73;;;5.00;;
8411;SDS011;4243;49.296;11.348;2023-06-14T02:26:41;123.83;;;4.90;;
8411;SDS011;4243;49.296;11.348;2023-06-14T02:29:13;123.77;;;4.93;;
8411;SDS011;4243;49.296;11.348;2023-06-14T02:31:41;123.47;;;5.07;;
8411;SDS011;4243;49.296;11.348;2023-06-14T02:34:09;123.10;;;4.43;;
8411;SDS011;4243;49.296;11.348;2023-06-14T02:36:36;123.90;;;5.07;;
8411;SDS011;4243;49.296;11.348;2023-06-14T02:39:08;123.47;;;4.67;;
8411;SDS011;4243;49.296;11.348;2023-06-14T02:41:37;123.57;;;4.97;;
8411;SDS011;4243;49.296;11.348;2023-06-14T02:44:05;123.43;;;4.33;;
8411;SDS011;4243;49.296;11.348;2023-06-14T02:46:33;123.13;;;4.53;;
8411;SDS011;4243;49.296;11.348;2023-06-14T02:49:00;123.37;;;4.30;;
8411;SDS011;4243;49.296;11.348;2023-06-14T02:51:29;123.43;;;4.17;;
8411;SDS011;4243;49.296;11.348;2023-06-14T02:53:56;123.20;;;4.17;;
8411;SDS011;4243;49.296;11.348;2023-06-14T02:56:24;122.67;;;3.97;;
8411;SDS011;4243;49.296;11.348;2023-06-14T02:58:52;123.07;;;3.90;;
8411;SDS011;4243;49.296;11.348;2023-06-14T03:01:20;123.20;;;3.80;;
8411;SDS011;4243;49.296;11.348;2023-06-14T03:03:48;123.07;;;3.33;;
8411;SDS011;4243;49.296;11.348;2023-06-14T03:06:16;122.90;;;3.30;;
8411;SDS011;4243;49.296;11.348;2023-06-14T03:08:45;123.07;;;3.30;;
8411;SDS011;4243;49.296;11.348;2023-06-14T03:11:15;122.57;;;3.17;;
8411;SDS011;4243;49.296;11.348;2023-06-14T03:13:43;122.97;;;3.30;;
8411;SDS011;4243;49.296;11.348;2023-06-14T03:16:12;122.30;;;3.03;;
8411;SDS011;4243;49.296;11.348;2023-06-14T03:18:40;122.77;;;3.37;;
8411;SDS011;4243;49.296;11.348;2023-06-14T03:21:07;122.40;;;3.50;;
8411;SDS011;4243;49.296;11.348;2023-06-14T03:23:37;122.70;;;3.10;;
8411;SDS011;4243;49.296;11.348;2023-06-14T03:26:04;122.90;;;3.10;;
8411;SDS011;4243;49.296;11.348;2023-06-14T03:28:32;122.23;;;2.97;;
8411;SDS011;4243;49.296;11.348;2023-06-14T03:31:00;122.70;;;3.00;;
8411;SDS011;4243;49.296;11.348;2023-06-14T03:33:30;122.40;;;3.23;;
8411;SDS011;4243;49.296;11.348;2023-06-14T03:35:58;122.80;;;3.07;;
8411;SDS011;4243;49.296;11.348;2023-06-14T03:38:26;122.53;;;3.23;;
8411;SDS011;4243;49.296;11.348;2023-06-14T03:40:54;122.70;;;3.20;;
8411;SDS011;4243;49.296;11.348;2023-06-14T03:43:21;122.60;;;3.23;;
8411;SDS011;4243;49.296;11.348;2023-06-14T03:45:49;122.07;;;3.17;;
8411;SDS011;4243;49.296;11.348;2023-06-14T03:48:18;123.20;;;3.17;;
8411;SDS011;4243;49.296;11.348;2023-06-14T03:50:46;122.60;;;3.23;;
8411;SDS011;4243;49.296;11.348;2023-06-14T03:53:13;122.87;;;3.23;;
8411;SDS011;4243;49.296;11.348;2023-06-14T03:55:44;122.43;;;3.17;;
8411;SDS011;4243;49.296;11.348;2023-06-14T03:58:15;122.37;;;3.33;;
8411;SDS011;4243;49.296;11.348;2023-06-14T04:00:42;122.47;;;3.13;;
8411;SDS011;4243;49.296;11.348;2023-06-14T04:03:11;122.50;;;3.17;;
8411;SDS011;4243;49.296;11.348;2023-06-14T04:05:46;122.50;;;3.30;;
8411;SDS011;4243;49.296;11.348;2023-06-14T04:08:17;122.50;;;3.20;;
8411;SDS011;4243;49.296;11.348;2023-06-14T04:10:45;122.60;;;3.43;;
8411;SDS011;4243;49.296;11.348;2023-06-14T04:13:13;122.50;;;3.30;;
8411;SDS011;4243;49.296;11.348;2023-06-14T04:15:41;122.27;;;3.40;;
8411;SDS011;4243;49.296;11.348;2023-06-14T04:18:13;122.37;;;3.40;;
8411;SDS011;4243;49.296;11.348;2023-06-14T04:20:40;122.10;;;3.23;;
8411;SDS011;4243;49.296;11.348;2023-06-14T04:23:16;121.77;;;3.60;;
8411;SDS011;4243;49.296;11.348;2023-06-14T04:25:45;122.70;;;3.47;;
8411;SDS011;4243;49.296;11.348;2023-06-14T04:28:13;122.57;;;3.20;;
8411;SDS011;4243;49.296;11.348;2023-06-14T04:30:42;121.67;;;3.30;;
8411;SDS011;4243;49.296;11.348;2023-06-14T04:33:10;121.97;;;3.17;;
8411;SDS011;4243;49.296;11.348;2023-06-14T04:35:38;122.23;;;3.40;;
8411;SDS011;4243;49.296;11.348;2023-06-14T04:38:07;122.33;;;3.33;;
8411;SDS011;4243;49.296;11.348;2023-06-14T04:40:39;123.00;;;3.43;;
8411;SDS011;4243;49.296;11.348;2023-06-14T04:43:10;122.40;;;3.33;;
8411;SDS011;4243;49.296;11.348;2023-06-14T04:45:44;122.47;;;3.30;;
8411;SDS011;4243;49.296;11.348;2023-06-14T04:48:13;122.20;;;3.20;;
8411;SDS011;4243;49.296;11.348;2023-06-14T04:50:40;122.53;;;3.40;;
8411;SDS011;4243;49.296;11.348;2023-06-14T04:53:09;121.97;;;3.20;;
8411;SDS011;4243;49.296;11.348;2023-06-14T04:55:37;122.20;;;3.17;;
8411;SDS011;4243;49.296;11.348;2023-06-14T04:58:04;122.33;;;3.47;;
8411;SDS011;4243;49.296;11.348;2023-06-14T05:00:32;122.10;;;3.40;;
8411;SDS011;4243;49.296;11.348;2023-06-14T05:02:59;121.97;;;3.57;;
8411;SDS011;4243;49.296;11.348;2023-06-14T05:05:27;122.07;;;3.43;;
8411;SDS011;4243;49.296;11.348;2023-06-14T05:07:55;122.07;;;3.40;;
8411;SDS011;4243;49.296;11.348;2023-06-14T05:10:22;121.97;;;3.47;;
8411;SDS011;4243;49.296;11.348;2023-06-14T05:12:51;122.23;;;3.43;;
8411;SDS011;4243;49.296;11.348;2023-06-14T05:15:19;122.10;;;3.50;;
8411;SDS011;4243;49.296;11.348;2023-06-14T05:17:51;122.60;;;3.67;;
8411;SDS011;4243;49.296;11.348;2023-06-14T05:20:22;122.20;;;3.40;;
8411;SDS011;4243;49.296;11.348;2023-06-14T05:22:51;122.17;;;3.80;;
8411;SDS011;4243;49.296;11.348;2023-06-14T05:25:20;122.10;;;3.57;;
8411;SDS011;4243;49.296;11.348;2023-06-14T05:27:47;122.10;;;3.60;;
8411;SDS011;4243;49.296;11.348;2023-06-14T05:30:15;122.03;;;3.80;;
8411;SDS011;4243;49.296;11.348;2023-06-14T05:32:43;122.00;;;3.70;;
8411;SDS011;4243;49.296;11.348;2023-06-14T05:35:10;122.00;;;3.83;;
8411;SDS011;4243;49.296;11.348;2023-06-14T05:37:37;121.80;;;3.70;;
8411;SDS011;4243;49.296;11.348;2023-06-14T05:40:04;121.80;;;3.90;;
8411;SDS011;4243;49.296;11.348;2023-06-14T05:42:33;121.43;;;3.90;;
8411;SDS011;4243;49.296;11.348;2023-06-14T05:45:01;121.77;;;3.73;;
8411;SDS011;4243;49.296;11.348;2023-06-14T05:47:28;121.40;;;3.50;;
8411;SDS011;4243;49.296;11.348;2023-06-14T05:49:55;121.20;;;3.70;;
8411;SDS011;4243;49.296;11.348;2023-06-14T05:52:23;120.73;;;3.27;;
8411;SDS011;4243;49.296;11.348;2023-06-14T05:54:51;119.97;;;3.27;;
8411;SDS011;4243;49.296;11.348;2023-06-14T05:57:18;119.80;;;2.97;;
8411;SDS011;4243;49.296;11.348;2023-06-14T05:59:46;120.40;;;2.97;;
8411;SDS011;4243;49.296;11.348;2023-06-14T06:02:13;120.80;;;3.10;;
8411;SDS011;4243;49.296;11.348;2023-06-14T06:04:40;120.50;;;3.17;;
8411;SDS011;4243;49.296;11.348;2023-06-14T06:07:07;120.80;;;3.13;;
8411;SDS011;4243;49.296;11.348;2023-06-14T06:09:34;120.40;;;3.23;;
8411;SDS011;4243;49.296;11.348;2023-06-14T06:12:02;120.47;;;3.10;;
8411;SDS011;4243;49.296;11.348;2023-06-14T06:14:33;120.57;;;3.00;;
8411;SDS011;4243;49.296;11.348;2023-06-14T06:17:00;119.77;;;2.80;;
8411;SDS011;4243;49.296;11.348;2023-06-14T06:19:28;120.10;;;3.10;;
8411;SDS011;4243;49.296;11.348;2023-06-14T06:21:55;119.47;;;3.23;;
8411;SDS011;4243;49.296;11.348;2023-06-14T06:24:22;119.37;;;3.20;;
8411;SDS011;4243;49.296;11.348;2023-06-14T06:26:50;119.80;;;3.40;;
8411;SDS011;4243;49.296;11.348;2023-06-14T06:29:17;118.97;;;3.00;;
8411;SDS011;4243;49.296;11.348;2023-06-14T06:31:46;118.77;;;2.70;;
8411;SDS011;4243;49.296;11.348;2023-06-14T06:34:13;118.80;;;2.70;;
8411;SDS011;4243;49.296;11.348;2023-06-14T06:36:40;118.90;;;2.47;;
8411;SDS011;4243;49.296;11.348;2023-06-14T06:39:08;118.43;;;2.63;;
8411;SDS011;4243;49.296;11.348;2023-06-14T06:41:39;119.27;;;2.87;;
8411;SDS011;4243;49.296;11.348;2023-06-14T06:44:07;118.90;;;3.17;;
8411;SDS011;4243;49.296;11.348;2023-06-14T06:46:38;118.87;;;3.20;;
8411;SDS011;4243;49.296;11.348;2023-06-14T06:49:07;119.10;;;3.03;;
8411;SDS011;4243;49.296;11.348;2023-06-14T06:51:35;119.00;;;3.20;;
8411;SDS011;4243;49.296;11.348;2023-06-14T06:54:03;119.07;;;3.20;;
8411;SDS011;4243;49.296;11.348;2023-06-14T06:56:32;119.20;;;3.00;;
8411;SDS011;4243;49.296;11.348;2023-06-14T06:59:00;118.80;;;3.03;;
8411;SDS011;4243;49.296;11.348;2023-06-14T07:01:28;118.60;;;3.10;;
8411;SDS011;4243;49.296;11.348;2023-06-14T07:03:55;118.10;;;2.77;;
8411;SDS011;4243;49.296;11.348;2023-06-14T07:06:23;117.97;;;2.70;;
8411;SDS011;4243;49.296;11.348;2023-06-14T07:08:53;117.30;;;2.37;;
8411;SDS011;4243;49.296;11.348;2023-06-14T07:11:20;117.67;;;2.40;;
8411;SDS011;4243;49.296;11.348;2023-06-14T07:13:48;117.27;;;2.17;;
8411;SDS011;4243;49.296;11.348;2023-06-14T07:16:15;117.40;;;2.10;;
8411;SDS011;4243;49.296;11.348;2023-06-14T07:18:43;117.60;;;2.17;;
8411;SDS011;4243;49.296;11.348;2023-06-14T07:21:10;117.30;;;2.30;;
8411;SDS011;4243;49.296;11.348;2023-06-14T07:23:37;117.50;;;2.27;;
8411;SDS011;4243;49.296;11.348;2023-06-14T07:26:04;117.40;;;2.10;;
8411;SDS011;4243;49.296;11.348;2023-06-14T07:28:32;116.40;;;2.20;;
8411;SDS011;4243;49.296;11.348;2023-06-14T07:30:59;117.83;;;2.20;;
8411;SDS011;4243;49.296;11.348;2023-06-14T07:33:27;115.77;;;2.40;;
8411;SDS011;4243;49.296;11.348;2023-06-14T07:35:54;116.57;;;2.50;;
8411;SDS011;4243;49.296;11.348;2023-06-14T07:38:22;117.17;;;2.50;;
8411;SDS011;4243;49.296;11.348;2023-06-14T07:40:49;117.60;;;2.53;;
8411;SDS011;4243;49.296;11.348;2023-06-14T07:43:16;118.10;;;2.53;;
8411;SDS011;4243;49.296;11.348;2023-06-14T07:45:44;117.27;;;2.57;;
8411;SDS011;4243;49.296;11.348;2023-06-14T07:48:32;117.27;;;2.33;;
8411;SDS011;4243;49.296;11.348;2023-06-14T07:51:00;116.57;;;2.30;;
8411;SDS011;4243;49.296;11.348;2023-06-14T07:53:27;117.07;;;2.30;;
8411;SDS011;4243;49.296;11.348;2023-06-14T07:55:55;115.50;;;2.50;;
8411;SDS011;4243;49.296;11.348;2023-06-14T07:58:22;116.10;;;2.60;;
8411;SDS011;4243;49.296;11.348;2023-06-14T08:03:47;115.87;;;2.63;;
8411;SDS011;4243;49.296;11.348;2023-06-14T08:06:15;114.37;;;3.37;;
8411;SDS011;4243;49.296;11.348;2023-06-14T08:08:44;115.87;;;4.67;;
8411;SDS011;4243;49.296;11.348;2023-06-14T08:11:11;115.87;;;6.07;;
8411;SDS011;4243;49.296;11.348;2023-06-14T08:13:39;114.87;;;5.10;;
8411;SDS011;4243;49.296;11.348;2023-06-14T08:16:06;114.00;;;3.23;;
8411;SDS011;4243;49.296;11.348;2023-06-14T08:18:34;112.90;;;2.33;;
8411;SDS011;4243;49.296;11.348;2023-06-14T08:21:01;112.30;;;2.27;;
8411;SDS011;4243;49.296;11.348;2023-06-14T08:23:29;112.67;;;2.60;;
8411;SDS011;4243;49.296;11.348;2023-06-14T08:25:56;112.87;;;2.83;;
8411;SDS011;4243;49.296;11.348;2023-06-14T08:28:24;112.47;;;2.20;;
8411;SDS011;4243;49.296;11.348;2023-06-14T08:30:51;111.87;;;1.73;;
8411;SDS011;4243;49.296;11.348;2023-06-14T08:33:18;111.17;;;1.90;;
8411;SDS011;4243;49.296;11.348;2023-06-14T08:35:46;111.30;;;3.60;;
8411;SDS011;4243;49.296;11.348;2023-06-14T08:38:13;109.90;;;4.07;;
8411;SDS011;4243;49.296;11.348;2023-06-14T08:40:41;109.40;;;2.63;;
8411;SDS011;4243;49.296;11.348;2023-06-14T08:43:09;110.77;;;3.73;;
8411;SDS011;4243;49.296;11.348;2023-06-14T08:45:36;111.10;;;3.90;;
8411;SDS011;4243;49.296;11.348;2023-06-14T08:48:03;112.03;;;4.40;;
8411;SDS011;4243;49.296;11.348;2023-06-14T08:50:33;113.50;;;5.43;;
8411;SDS011;4243;49.296;11.348;2023-06-14T08:53:04;113.07;;;3.83;;
8411;SDS011;4243;49.296;11.348;2023-06-14T08:55:36;113.17;;;3.50;;
8411;SDS011;4243;49.296;11.348;2023-06-14T08:58:09;112.63;;;3.67;;
8411;SDS011;4243;49.296;11.348;2023-06-14T09:00:40;112.27;;;3.40;;
8411;SDS011;4243;49.296;11.348;2023-06-14T09:03:09;111.93;;;3.70;;
8411;SDS011;4243;49.296;11.348;2023-06-14T09:05:39;112.37;;;4.43;;
8411;SDS011;4243;49.296;11.348;2023-06-14T09:08:07;111.27;;;3.70;;
8411;SDS011;4243;49.296;11.348;2023-06-14T09:10:34;109.97;;;2.83;;
8411;SDS011;4243;49.296;11.348;2023-06-14T09:13:04;108.60;;;1.70;;
8411;SDS011;4243;49.296;11.348;2023-06-14T09:15:31;108.00;;;1.70;;
8411;SDS011;4243;49.296;11.348;2023-06-14T09:18:02;108.13;;;1.87;;
8411;SDS011;4243;49.296;11.348;2023-06-14T09:20:30;108.30;;;3.20;;
8411;SDS011;4243;49.296;11.348;2023-06-14T09:22:58;108.20;;;2.90;;
8411;SDS011;4243;49.296;11.348;2023-06-14T09:25:27;108.17;;;2.87;;
8411;SDS011;4243;49.296;11.348;2023-06-14T09:28:06;108.50;;;3.07;;
8411;SDS011;4243;49.296;11.348;2023-06-14T09:30:37;108.87;;;3.67;;
8411;SDS011;4243;49.296;11.348;2023-06-14T09:33:05;109.97;;;3.63;;
8411;SDS011;4243;49.296;11.348;2023-06-14T09:35:34;109.30;;;3.73;;
8411;SDS011;4243;49.296;11.348;2023-06-14T09:38:02;109.10;;;3.40;;
8411;SDS011;4243;49.296;11.348;2023-06-14T09:40:31;109.57;;;3.40;;
8411;SDS011;4243;49.296;11.348;2023-06-14T09:43:03;108.90;;;3.13;;
8411;SDS011;4243;49.296;11.348;2023-06-14T09:45:38;107.80;;;3.30;;
8411;SDS011;4243;49.296;11.348;2023-06-14T09:48:06;109.50;;;7.50;;
8411;SDS011;4243;49.296;11.348;2023-06-14T09:50:35;109.77;;;6.70;;
8411;SDS011;4243;49.296;11.348;2023-06-14T09:53:11;110.07;;;6.70;;
8411;SDS011;4243;49.296;11.348;2023-06-14T09:55:40;109.20;;;7.50;;
8411;SDS011;4243;49.296;11.348;2023-06-14T09:58:10;107.87;;;6.07;;
8411;SDS011;4243;49.296;11.348;2023-06-14T10:00:39;110.80;;;10.87;;
8411;SDS011;4243;49.296;11.348;2023-06-14T10:03:14;111.53;;;11.20;;
8411;SDS011;4243;49.296;11.348;2023-06-14T10:05:52;114.00;;;13.67;;
8411;SDS011;4243;49.296;11.348;2023-06-14T10:08:27;112.57;;;8.97;;
8411;SDS011;4243;49.296;11.348;2023-06-14T10:10:59;112.20;;;5.90;;
8411;SDS011;4243;49.296;11.348;2023-06-14T10:13:26;112.37;;;3.70;;
8411;SDS011;4243;49.296;11.348;2023-06-14T10:16:08;112.90;;;2.30;;
8411;SDS011;4243;49.296;11.348;2023-06-14T10:19:16;113.93;;;3.00;;
8411;SDS011;4243;49.296;11.348;2023-06-14T10:24:58;112.70;;;3.43;;
8411;SDS011;4243;49.296;11.348;2023-06-14T10:27:27;111.83;;;2.80;;
8411;SDS011;4243;49.296;11.348;2023-06-14T10:32:24;111.60;;;2.37;;
8411;SDS011;4243;49.296;11.348;2023-06-14T10:34:55;111.77;;;2.40;;
8411;SDS011;4243;49.296;11.348;2023-06-14T10:37:45;112.07;;;3.10;;
8411;SDS011;4243;49.296;11.348;2023-06-14T10:40:32;112.67;;;3.10;;
8411;SDS011;4243;49.296;11.348;2023-06-14T10:43:01;112.77;;;3.10;;
8411;SDS011;4243;49.296;11.348;2023-06-14T10:48:49;113.17;;;3.20;;
8411;SDS011;4243;49.296;11.348;2023-06-14T10:51:29;114.00;;;3.30;;
8411;SDS011;4243;49.296;11.348;2023-06-14T10:54:15;114.17;;;4.00;;
8411;SDS011;4243;49.296;11.348;2023-06-14T10:56:46;114.33;;;4.60;;
8411;SDS011;4243;49.296;11.348;2023-06-14T10:59:17;114.67;;;5.03;;
8411;SDS011;4243;49.296;11.348;2023-06-14T11:01:51;116.70;;;6.53;;
8411;SDS011;4243;49.296;11.348;2023-06-14T11:05:03;116.67;;;5.50;;
8411;SDS011;4243;49.296;11.348;2023-06-14T11:10:45;116.33;;;4.13;;
8411;SDS011;4243;49.296;11.348;2023-06-14T11:13:15;114.67;;;4.50;;
8411;SDS011;4243;49.296;11.348;2023-06-14T11:15:44;113.97;;;3.80;;
8411;SDS011;4243;49.296;11.348;2023-06-14T11:18:14;115.30;;;6.77;;
8411;SDS011;4243;49.296;11.348;2023-06-14T11:20:45;115.47;;;8.10;;
8411;SDS011;4243;49.296;11.348;2023-06-14T11:23:13;112.50;;;4.50;;
8411;SDS011;4243;49.296;11.348;2023-06-14T11:25:41;111.07;;;3.23;;
8411;SDS011;4243;49.296;11.348;2023-06-14T11:28:08;111.37;;;2.43;;
8411;SDS011;4243;49.296;11.348;2023-06-14T11:30:35;112.00;;;3.13;;
8411;SDS011;4243;49.296;11.348;2023-06-14T11:33:03;112.30;;;3.50;;
8411;SDS011;4243;49.296;11.348;2023-06-14T11:35:31;113.40;;;4.17;;
8411;SDS011;4243;49.296;11.348;2023-06-14T11:38:01;114.17;;;4.10;;
8411;SDS011;4243;49.296;11.348;2023-06-14T11:40:28;115.27;;;5.10;;
8411;SDS011;4243;49.296;11.348;2023-06-14T11:42:59;117.13;;;7.50;;
8411;SDS011;4243;49.296;11.348;2023-06-14T11:45:29;116.63;;;6.90;;
8411;SDS011;4243;49.296;11.348;2023-06-14T11:48:00;116.07;;;5.20;;
8411;SDS011;4243;49.296;11.348;2023-06-14T11:50:27;115.87;;;4.37;;
8411;SDS011;4243;49.296;11.348;2023-06-14T11:52:55;115.27;;;4.13;;
8411;SDS011;4243;49.296;11.348;2023-06-14T11:55:37;115.47;;;4.10;;
8411;SDS011;4243;49.296;11.348;2023-06-14T11:58:06;114.87;;;4.00;;
8411;SDS011;4243;49.296;11.348;2023-06-14T12:00:35;115.27;;;4.43;;
8411;SDS011;4243;49.296;11.348;2023-06-14T12:03:03;115.87;;;4.77;;
8411;SDS011;4243;49.296;11.348;2023-06-14T12:05:32;115.70;;;4.17;;
8411;SDS011;4243;49.296;11.348;2023-06-14T12:08:02;115.60;;;4.40;;
8411;SDS011;4243;49.296;11.348;2023-06-14T12:10:40;115.03;;;5.63;;
8411;SDS011;4243;49.296;11.348;2023-06-14T12:13:10;115.47;;;7.10;;
8411;SDS011;4243;49.296;11.348;2023-06-14T12:15:39;115.03;;;6.90;;
8411;SDS011;4243;49.296;11.348;2023-06-14T12:18:06;115.37;;;7.70;;
8411;SDS011;4243;49.296;11.348;2023-06-14T12:20:34;114.30;;;5.73;;
8411;SDS011;4243;49.296;11.348;2023-06-14T12:23:03;113.80;;;4.60;;
8411;SDS011;4243;49.296;11.348;2023-06-14T12:25:32;114.83;;;5.17;;
8411;SDS011;4243;49.296;11.348;2023-06-14T12:28:06;113.57;;;5.30;;
8411;SDS011;4243;49.296;11.348;2023-06-14T12:30:37;114.27;;;5.30;;
8411;SDS011;4243;49.296;11.348;2023-06-14T12:33:04;116.13;;;7.00;;
8411;SDS011;4243;49.296;11.348;2023-06-14T12:35:34;114.77;;;6.50;;
8411;SDS011;4243;49.296;11.348;2023-06-14T12:38:01;113.00;;;4.50;;
8411;SDS011;4243;49.296;11.348;2023-06-14T12:40:29;113.67;;;4.67;;
8411;SDS011;4243;49.296;11.348;2023-06-14T12:42:57;113.27;;;3.53;;
8411;SDS011;4243;49.296;11.348;2023-06-14T12:45:25;112.87;;;3.57;;
8411;SDS011;4243;49.296;11.348;2023-06-14T12:47:52;113.97;;;4.37;;
8411;SDS011;4243;49.296;11.348;2023-06-14T12:50:19;114.27;;;4.77;;
8411;SDS011;4243;49.296;11.348;2023-06-14T12:52:51;112.90;;;4.33;;
8411;SDS011;4243;49.296;11.348;2023-06-14T12:55:19;112.17;;;3.67;;
8411;SDS011;4243;49.296;11.348;2023-06-14T12:57:47;111.17;;;3.57;;
8411;SDS011;4243;49.296;11.348;2023-06-14T13:00:16;110.70;;;1.93;;
8411;SDS011;4243;49.296;11.348;2023-06-14T13:02:44;110.37;;;2.10;;
8411;SDS011;4243;49.296;11.348;2023-06-14T13:05:11;109.60;;;2.23;;
8411;SDS011;4243;49.296;11.348;2023-06-14T13:07:39;110.77;;;3.70;;
8411;SDS011;4243;49.296;11.348;2023-06-14T13:10:06;111.10;;;4.10;;
8411;SDS011;4243;49.296;11.348;2023-06-14T13:12:33;110.83;;;4.17;;
8411;SDS011;4243;49.296;11.348;2023-06-14T13:15:00;110.97;;;3.10;;
8411;SDS011;4243;49.296;11.348;2023-06-14T13:17:27;111.50;;;2.90;;
8411;SDS011;4243;49.296;11.348;2023-06-14T13:19:55;111.97;;;1.70;;
8411;SDS011;4243;49.296;11.348;2023-06-14T13:22:22;112.67;;;2.60;;
8411;SDS011;4243;49.296;11.348;2023-06-14T13:24:52;113.27;;;3.87;;
8411;SDS011;4243;49.296;11.348;2023-06-14T13:27:19;112.77;;;3.17;;
8411;SDS011;4243;49.296;11.348;2023-06-14T13:29:46;113.80;;;3.33;;
8411;SDS011;4243;49.296;11.348;2023-06-14T13:32:13;114.97;;;4.63;;
8411;SDS011;4243;49.296;11.348;2023-06-14T13:34:41;116.13;;;6.57;;
8411;SDS011;4243;49.296;11.348;2023-06-14T13:37:08;117.00;;;6.90;;
8411;SDS011;4243;49.296;11.348;2023-06-14T13:39:35;116.40;;;7.40;;
8411;SDS011;4243;49.296;11.348;2023-06-14T13:42:03;116.50;;;6.30;;
8411;SDS011;4243;49.296;11.348;2023-06-14T13:44:31;114.57;;;5.70;;
8411;SDS011;4243;49.296;11.348;2023-06-14T13:46:58;115.70;;;5.53;;
8411;SDS011;4243;49.296;11.348;2023-06-14T13:49:26;115.90;;;5.43;;
8411;SDS011;4243;49.296;11.348;2023-06-14T13:51:53;116.37;;;5.40;;
8411;SDS011;4243;49.296;11.348;2023-06-14T13:54:21;115.07;;;5.20;;
8411;SDS011;4243;49.296;11.348;2023-06-14T13:56:48;112.77;;;5.83;;
8411;SDS011;4243;49.296;11.348;2023-06-14T13:59:15;114.30;;;4.43;;
8411;SDS011;4243;49.296;11.348;2023-06-14T14:01:43;113.40;;;3.87;;
8411;SDS011;4243;49.296;11.348;2023-06-14T14:04:10;112.77;;;3.70;;
8411;SDS011;4243;49.296;11.348;2023-06-14T14:06:37;112.83;;;3.90;;
8411;SDS011;4243;49.296;11.348;2023-06-14T14:09:05;113.00;;;4.30;;
8411;SDS011;4243;49.296;11.348;2023-06-14T14:11:33;112.37;;;3.80;;
8411;SDS011;4243;49.296;11.348;2023-06-14T14:14:00;113.07;;;3.60;;
8411;SDS011;4243;49.296;11.348;2023-06-14T14:16:28;112.47;;;3.63;;
8411;SDS011;4243;49.296;11.348;2023-06-14T14:18:56;112.27;;;2.80;;
8411;SDS011;4243;49.296;11.348;2023-06-14T14:21:23;111.23;;;2.50;;
8411;SDS011;4243;49.296;11.348;2023-06-14T14:23:53;110.87;;;2.10;;
8411;SDS011;4243;49.296;11.348;2023-06-14T14:26:22;110.60;;;2.07;;
8411;SDS011;4243;49.296;11.348;2023-06-14T14:28:51;111.00;;;2.40;;
8411;SDS011;4243;49.296;11.348;2023-06-14T14:31:18;111.00;;;2.17;;
8411;SDS011;4243;49.296;11.348;2023-06-14T14:33:45;111.63;;;2.10;;
8411;SDS011;4243;49.296;11.348;2023-06-14T14:36:13;111.90;;;2.00;;
8411;SDS011;4243;49.296;11.348;2023-06-14T14:38:40;112.43;;;2.30;;
8411;SDS011;4243;49.296;11.348;2023-06-14T14:41:07;112.77;;;2.33;;
8411;SDS011;4243;49.296;11.348;2023-06-14T14:43:35;112.97;;;2.73;;
8411;SDS011;4243;49.296;11.348;2023-06-14T14:46:02;113.73;;;3.30;;
8411;SDS011;4243;49.296;11.348;2023-06-14T14:48:30;113.80;;;3.50;;
8411;SDS011;4243;49.296;11.348;2023-06-14T14:50:57;114.00;;;3.30;;
8411;SDS011;4243;49.296;11.348;2023-06-14T14:53:24;113.83;;;3.33;;
8411;SDS011;4243;49.296;11.348;2023-06-14T14:55:52;114.80;;;3.80;;
8411;SDS011;4243;49.296;11.348;2023-06-14T14:58:19;114.97;;;3.80;;
8411;SDS011;4243;49.296;11.348;2023-06-14T15:00:47;115.37;;;4.30;;